createdAt,value
2019-03-30T00:00:53.712Z,14.47
2019-03-30T00:06:01.564Z,13.97
2019-03-30T00:11:07.219Z,12.10
2019-03-30T00:16:13.241Z,11.97
2019-03-30T00:21:18.964Z,11.43
2019-03-30T00:26:24.989Z,11.37
2019-03-30T00:31:31.038Z,10.70
2019-03-30T00:36:37.322Z,13.13
2019-03-30T00:41:43.311Z,13.63
2019-03-30T00:46:49.398Z,13.50
2019-03-30T00:51:55.726Z,12.80
2019-03-30T00:57:03.184Z,11.13
2019-03-30T01:02:08.926Z,13.73
2019-03-30T01:07:14.480Z,12.70
2019-03-30T01:12:20.646Z,10.63
2019-03-30T01:17:27.073Z,12.17
2019-03-30T01:22:32.788Z,9.50
2019-03-30T01:27:38.731Z,8.63
2019-03-30T01:32:44.594Z,10.93
2019-03-30T01:37:50.591Z,9.83
2019-03-30T01:42:56.670Z,11.13
2019-03-30T01:48:02.550Z,12.43
2019-03-30T01:53:08.165Z,10.37
2019-03-30T01:58:13.808Z,9.33
2019-03-30T02:03:19.752Z,9.80
2019-03-30T02:08:25.692Z,9.47
2019-03-30T02:13:31.289Z,9.50
2019-03-30T02:18:37.374Z,8.77
2019-03-30T02:23:42.969Z,9.30
2019-03-30T02:28:48.783Z,9.53
2019-03-30T02:33:55.030Z,9.20
2019-03-30T02:39:02.199Z,14.47
2019-03-30T02:44:09.618Z,10.77
2019-03-30T02:49:16.981Z,10.70
2019-03-30T02:54:24.372Z,11.83
2019-03-30T02:59:30.663Z,9.90
2019-03-30T03:04:36.213Z,12.27
2019-03-30T03:09:41.924Z,13.37
2019-03-30T03:14:47.516Z,12.53
2019-03-30T03:19:53.181Z,10.43
2019-03-30T03:24:58.977Z,10.17
2019-03-30T03:30:06.092Z,10.57
2019-03-30T03:35:12.405Z,11.27
2019-03-30T03:40:18.297Z,10.70
2019-03-30T03:45:23.887Z,11.13
2019-03-30T03:50:36.558Z,11.83
2019-03-30T03:55:43.077Z,10.87
2019-03-30T04:00:51.194Z,10.27
2019-03-30T04:05:58.960Z,10.33
2019-03-30T04:11:04.852Z,10.70
2019-03-30T04:16:10.409Z,11.07
2019-03-30T04:21:16.311Z,12.10
2019-03-30T04:26:22.854Z,9.93
2019-03-30T04:31:28.584Z,12.07
2019-03-30T04:36:34.228Z,11.50
2019-03-30T04:41:39.863Z,11.90
2019-03-30T04:46:45.506Z,11.80
2019-03-30T04:51:57.390Z,11.93
2019-03-30T04:57:00.035Z,10.93
2019-03-30T05:02:06.807Z,10.80
2019-03-30T05:07:13.458Z,10.70
2019-03-30T05:12:19.711Z,10.90
2019-03-30T05:17:25.500Z,10.60
2019-03-30T05:22:31.362Z,12.83
2019-03-30T05:27:36.927Z,14.17
2019-03-30T05:32:44.721Z,14.13
2019-03-30T05:37:50.540Z,11.73
2019-03-30T05:42:56.377Z,10.70
2019-03-30T05:48:02.023Z,12.77
2019-03-30T05:53:07.636Z,12.20
2019-03-30T05:58:13.461Z,12.47
2019-03-30T06:03:19.343Z,12.03
2019-03-30T06:08:25.177Z,12.73
2019-03-30T06:13:31.401Z,13.80
2019-03-30T06:18:37.649Z,11.90
2019-03-30T06:23:43.316Z,12.33
2019-03-30T06:28:48.881Z,15.83
2019-03-30T06:33:54.647Z,15.23
2019-03-30T06:39:00.456Z,13.63
2019-03-30T06:44:07.803Z,15.30
2019-03-30T06:49:13.382Z,16.30
2019-03-30T06:54:21.872Z,16.60
2019-03-30T06:59:29.137Z,16.37
2019-03-30T07:04:34.779Z,17.23
2019-03-30T07:09:41.305Z,17.93
2019-03-30T07:14:49.290Z,18.27
2019-03-30T07:19:55.153Z,16.73
2019-03-30T07:25:01.159Z,16.20
2019-03-30T07:30:08.548Z,18.57
2019-03-30T07:35:14.460Z,21.03
2019-03-30T07:40:20.507Z,19.90
2019-03-30T07:45:26.102Z,21.27
2019-03-30T07:50:33.321Z,20.33
2019-03-30T07:55:39.448Z,24.90
2019-03-30T08:00:45.559Z,25.20
2019-03-30T08:05:54.391Z,23.53
2019-03-30T08:10:59.861Z,25.93
2019-03-30T08:16:05.999Z,25.40
2019-03-30T08:21:11.568Z,24.37
2019-03-30T08:26:17.226Z,26.63
2019-03-30T08:31:23.298Z,25.70
2019-03-30T08:36:28.946Z,24.73
2019-03-30T08:41:34.804Z,24.57
2019-03-30T08:46:41.397Z,25.43
2019-03-30T08:51:47.349Z,27.67
2019-03-30T08:56:54.566Z,25.17
2019-03-30T09:02:00.382Z,26.03
2019-03-30T09:07:06.193Z,22.53
2019-03-30T09:12:11.977Z,22.07
2019-03-30T09:17:18.476Z,22.83
2019-03-30T09:22:24.657Z,26.73
2019-03-30T09:27:31.742Z,21.63
2019-03-30T09:32:37.866Z,23.50
2019-03-30T09:37:44.269Z,23.90
2019-03-30T09:42:49.937Z,23.50
2019-03-30T09:47:57.120Z,23.13
2019-03-30T09:53:02.774Z,23.63
2019-03-30T09:58:08.362Z,20.33
2019-03-30T10:03:13.953Z,19.53
2019-03-30T10:08:19.987Z,19.83
2019-03-30T10:13:27.518Z,19.17
2019-03-30T10:18:33.268Z,17.00
2019-03-30T10:23:40.250Z,18.10
2019-03-30T10:28:47.198Z,19.57
2019-03-30T10:33:54.785Z,17.90
2019-03-30T10:39:00.425Z,17.77
2019-03-30T10:44:08.788Z,18.23
2019-03-30T10:49:14.753Z,18.33
2019-03-30T10:54:20.506Z,17.30
2019-03-30T10:59:27.597Z,17.23
2019-03-30T11:04:33.538Z,15.93
2019-03-30T11:09:39.515Z,17.92
2019-03-30T11:14:46.170Z,16.12
2019-03-30T11:19:52.676Z,15.90
2019-03-30T11:25:07.269Z,15.27
2019-03-30T11:30:07.672Z,13.37
2019-03-30T11:35:13.754Z,12.97
2019-03-30T11:40:20.152Z,12.37
2019-03-30T11:45:25.717Z,14.40
2019-03-30T11:50:32.117Z,13.75
2019-03-30T11:55:37.924Z,11.90
2019-03-30T12:00:44.087Z,12.88
2019-03-30T12:05:50.712Z,12.50
2019-03-30T12:10:56.558Z,11.12
2019-03-30T12:16:04.525Z,12.33
2019-03-30T12:21:11.236Z,13.40
2019-03-30T12:26:17.230Z,14.95
2019-03-30T12:31:24.355Z,11.18
2019-03-30T12:36:30.294Z,12.58
2019-03-30T12:41:37.781Z,10.15
2019-03-30T12:46:44.599Z,9.58
2019-03-30T12:51:52.016Z,10.90
2019-03-30T12:56:57.883Z,9.95
2019-03-30T13:02:04.790Z,12.00
2019-03-30T13:07:14.479Z,8.85
2019-03-30T13:12:23.222Z,8.93
2019-03-30T13:17:29.450Z,9.20
2019-03-30T13:22:37.732Z,12.30
2019-03-30T13:27:44.613Z,10.25
2019-03-30T13:32:53.566Z,10.85
2019-03-30T13:38:01.764Z,11.83
2019-03-30T13:43:11.213Z,11.68
2019-03-30T13:48:19.576Z,14.50
2019-03-30T13:53:29.131Z,12.50
2019-03-30T13:58:36.583Z,20.37
2019-03-30T14:03:43.085Z,14.95
2019-03-30T14:08:50.789Z,15.58
2019-03-30T14:13:56.716Z,17.70
2019-03-30T14:19:02.523Z,15.50
2019-03-30T14:24:12.089Z,17.60
2019-03-30T14:29:20.580Z,18.42
2019-03-30T14:34:30.588Z,20.27
2019-03-30T14:39:38.715Z,20.30
2019-03-30T14:44:48.054Z,22.20
2019-03-30T14:49:55.512Z,21.57
2019-03-30T14:55:02.584Z,20.32
2019-03-30T15:00:11.789Z,22.65
2019-03-30T15:05:18.986Z,21.82
2019-03-30T15:10:30.665Z,21.35
2019-03-30T15:15:40.100Z,18.55
2019-03-30T15:20:46.523Z,18.57
2019-03-30T15:25:53.440Z,20.23
2019-03-30T15:31:01.931Z,19.82
2019-03-30T15:36:09.057Z,19.35
2019-03-30T15:41:16.004Z,20.30
2019-03-30T15:46:23.472Z,18.07
2019-03-30T15:51:32.325Z,17.55
2019-03-30T15:56:42.760Z,21.33
2019-03-30T16:01:51.122Z,18.23
2019-03-30T16:06:59.460Z,17.90
2019-03-30T16:12:07.789Z,15.05
2019-03-30T16:17:14.990Z,20.17
2019-03-30T16:22:23.924Z,18.00
2019-03-30T16:27:33.440Z,16.65
2019-03-30T16:32:41.519Z,18.37
2019-03-30T16:37:48.448Z,16.52
2019-03-30T16:42:55.573Z,17.23
2019-03-30T16:48:04.004Z,16.57
2019-03-30T16:53:11.524Z,16.90
2019-03-30T16:58:21.268Z,16.00
2019-03-30T17:03:28.272Z,18.75
2019-03-30T17:08:36.613Z,17.15
2019-03-30T17:13:43.095Z,15.72
2019-03-30T17:18:51.311Z,16.95
2019-03-30T17:23:59.068Z,17.02
2019-03-30T17:29:05.394Z,20.37
2019-03-30T17:34:12.074Z,18.92
2019-03-30T17:39:19.511Z,19.67
2019-03-30T17:44:27.604Z,17.35
2019-03-30T17:49:34.415Z,15.08
2019-03-30T17:54:41.827Z,16.77
2019-03-30T17:59:50.436Z,17.30
2019-03-30T18:04:59.332Z,16.73
2019-03-30T18:10:09.344Z,18.33
2019-03-30T18:15:16.657Z,15.63
2019-03-30T18:20:23.136Z,20.17
2019-03-30T18:25:29.982Z,17.70
2019-03-30T18:30:42.151Z,19.13
2019-03-30T18:35:49.195Z,18.30
2019-03-30T18:40:54.829Z,17.57
2019-03-30T18:46:01.714Z,17.03
2019-03-30T18:51:08.354Z,19.30
2019-03-30T18:56:14.850Z,18.93
2019-03-30T19:01:22.984Z,21.50
2019-03-30T19:06:30.358Z,18.47
2019-03-30T19:11:37.846Z,17.30
2019-03-30T19:16:43.975Z,18.87
2019-03-30T19:21:50.073Z,18.50
2019-03-30T19:26:56.047Z,19.27
2019-03-30T19:32:03.759Z,19.03
2019-03-30T19:37:11.069Z,21.80
2019-03-30T19:42:16.994Z,23.10
2019-03-30T19:47:23.782Z,21.40
2019-03-30T19:52:39.848Z,20.07
2019-03-30T19:57:37.544Z,24.20
2019-03-30T20:02:43.825Z,24.70
2019-03-30T20:07:52.751Z,25.53
2019-03-30T20:12:59.993Z,24.67
2019-03-30T20:18:07.483Z,149.00
2019-03-30T20:23:13.701Z,71.93
2019-03-30T20:28:20.817Z,27.77
2019-03-30T20:33:26.802Z,30.27
2019-03-30T20:38:33.817Z,26.73
2019-03-30T20:43:40.265Z,25.83
2019-03-30T20:48:48.901Z,27.17
2019-03-30T20:53:56.447Z,28.83
2019-03-30T20:59:03.215Z,28.07
2019-03-30T21:04:08.989Z,31.67
2019-03-30T21:09:14.870Z,32.13
2019-03-30T21:14:21.944Z,32.03
2019-03-30T21:19:28.662Z,35.83
2019-03-30T21:24:36.607Z,37.10
2019-03-30T21:29:54.622Z,32.17
2019-03-30T21:34:56.007Z,31.83
2019-03-30T21:40:06.809Z,29.97
2019-03-30T21:45:15.793Z,33.63
2019-03-30T21:50:23.359Z,34.53
2019-03-30T21:55:29.995Z,37.30
2019-03-30T22:00:40.061Z,30.73
2019-03-30T22:05:47.663Z,31.23
2019-03-30T22:10:53.444Z,29.37
2019-03-30T22:15:59.115Z,31.60
2019-03-30T22:21:05.967Z,32.13
2019-03-30T22:26:13.102Z,38.93
2019-03-30T22:31:20.088Z,28.63
2019-03-30T22:36:28.211Z,35.97
2019-03-30T22:41:35.431Z,32.30
2019-03-30T22:46:43.426Z,30.80
2019-03-30T22:51:52.234Z,29.43
2019-03-30T22:56:58.151Z,30.93
2019-03-30T23:02:04.809Z,29.60
2019-03-30T23:07:12.247Z,31.77
2019-03-30T23:12:19.403Z,32.00
2019-03-30T23:17:27.358Z,29.83
2019-03-30T23:22:33.413Z,30.87
2019-03-30T23:27:39.650Z,29.73
2019-03-30T23:32:45.700Z,31.47
2019-03-30T23:37:53.392Z,31.93
2019-03-30T23:42:59.635Z,30.70
2019-03-30T23:48:05.223Z,29.57
2019-03-30T23:53:13.659Z,34.47
2019-03-30T23:58:21.344Z,32.03
